sensor_id;sensor_type;location;lat;lon;timestamp;P1;durP1;ratioP1;P2;durP2;ratioP2
77775;SDS011;66965;43.328;6.668;2023-04-01T00:01:57;6.97;;;1.50;;
77775;SDS011;66965;43.328;6.668;2023-04-01T00:04:23;5.47;;;1.02;;
77775;SDS011;66965;43.328;6.668;2023-04-01T00:06:48;8.00;;;1.70;;
77775;SDS011;66965;43.328;6.668;2023-04-01T00:09:14;3.92;;;1.20;;
77775;SDS011;66965;43.328;6.668;2023-04-01T00:11:40;6.30;;;1.60;;
77775;SDS011;66965;43.328;6.668;2023-04-01T00:14:06;9.30;;;1.98;;
77775;SDS011;66965;43.328;6.668;2023-04-01T00:16:32;6.10;;;1.23;;
77775;SDS011;66965;43.328;6.668;2023-04-01T00:18:58;3.50;;;0.82;;
77775;SDS011;66965;43.328;6.668;2023-04-01T00:21:25;5.72;;;1.33;;
77775;SDS011;66965;43.328;6.668;2023-04-01T00:23:51;5.28;;;1.25;;
77775;SDS011;66965;43.328;6.668;2023-04-01T00:26:16;5.57;;;1.15;;
77775;SDS011;66965;43.328;6.668;2023-04-01T00:28:45;4.38;;;1.10;;
77775;SDS011;66965;43.328;6.668;2023-04-01T00:31:11;6.35;;;1.13;;
77775;SDS011;66965;43.328;6.668;2023-04-01T00:33:37;5.30;;;1.42;;
77775;SDS011;66965;43.328;6.668;2023-04-01T00:38:36;6.57;;;1.27;;
77775;SDS011;66965;43.328;6.668;2023-04-01T00:41:03;5.25;;;1.40;;
77775;SDS011;66965;43.328;6.668;2023-04-01T00:43:29;5.85;;;1.48;;
77775;SDS011;66965;43.328;6.668;2023-04-01T00:45:55;8.25;;;1.75;;
77775;SDS011;66965;43.328;6.668;2023-04-01T00:48:31;6.25;;;1.13;;
77775;SDS011;66965;43.328;6.668;2023-04-01T00:51:03;4.28;;;0.93;;
77775;SDS011;66965;43.328;6.668;2023-04-01T00:53:31;9.60;;;2.08;;
77775;SDS011;66965;43.328;6.668;2023-04-01T00:56:01;8.30;;;1.65;;
77775;SDS011;66965;43.328;6.668;2023-04-01T00:58:32;6.97;;;1.65;;
77775;SDS011;66965;43.328;6.668;2023-04-01T01:01:03;5.70;;;1.20;;
77775;SDS011;66965;43.328;6.668;2023-04-01T01:03:29;8.80;;;1.65;;
77775;SDS011;66965;43.328;6.668;2023-04-01T01:11:01;4.70;;;1.50;;
77775;SDS011;66965;43.328;6.668;2023-04-01T01:13:37;6.05;;;1.35;;
77775;SDS011;66965;43.328;6.668;2023-04-01T01:16:15;4.80;;;1.13;;
77775;SDS011;66965;43.328;6.668;2023-04-01T01:21:40;4.90;;;0.93;;
77775;SDS011;66965;43.328;6.668;2023-04-01T01:27:11;7.53;;;2.30;;
77775;SDS011;66965;43.328;6.668;2023-04-01T01:32:50;6.60;;;1.70;;
77775;SDS011;66965;43.328;6.668;2023-04-01T01:38:05;5.57;;;1.70;;
77775;SDS011;66965;43.328;6.668;2023-04-01T01:40:35;4.65;;;1.50;;
77775;SDS011;66965;43.328;6.668;2023-04-01T01:43:05;5.05;;;1.17;;
77775;SDS011;66965;43.328;6.668;2023-04-01T01:45:34;3.53;;;1.00;;
77775;SDS011;66965;43.328;6.668;2023-04-01T01:48:04;9.68;;;1.55;;
77775;SDS011;66965;43.328;6.668;2023-04-01T01:50:32;5.43;;;1.50;;
77775;SDS011;66965;43.328;6.668;2023-04-01T01:53:05;9.32;;;1.67;;
77775;SDS011;66965;43.328;6.668;2023-04-01T01:55:37;9.48;;;1.60;;
77775;SDS011;66965;43.328;6.668;2023-04-01T01:58:19;3.20;;;1.08;;
77775;SDS011;66965;43.328;6.668;2023-04-01T02:00:48;8.25;;;0.95;;
77775;SDS011;66965;43.328;6.668;2023-04-01T02:03:20;6.38;;;1.15;;
77775;SDS011;66965;43.328;6.668;2023-04-01T02:05:49;3.95;;;1.10;;
77775;SDS011;66965;43.328;6.668;2023-04-01T02:08:18;5.15;;;1.58;;
77775;SDS011;66965;43.328;6.668;2023-04-01T02:10:59;5.65;;;1.30;;
77775;SDS011;66965;43.328;6.668;2023-04-01T02:16:31;9.23;;;1.40;;
77775;SDS011;66965;43.328;6.668;2023-04-01T02:19:01;4.85;;;1.15;;
77775;SDS011;66965;43.328;6.668;2023-04-01T02:21:32;4.38;;;1.15;;
77775;SDS011;66965;43.328;6.668;2023-04-01T02:24:00;4.40;;;1.10;;
77775;SDS011;66965;43.328;6.668;2023-04-01T02:26:29;5.30;;;1.33;;
77775;SDS011;66965;43.328;6.668;2023-04-01T02:28:55;7.68;;;1.95;;
77775;SDS011;66965;43.328;6.668;2023-04-01T02:31:22;8.18;;;1.60;;
77775;SDS011;66965;43.328;6.668;2023-04-01T02:36:14;4.90;;;1.20;;
77775;SDS011;66965;43.328;6.668;2023-04-01T02:38:41;5.43;;;1.65;;
77775;SDS011;66965;43.328;6.668;2023-04-01T02:41:09;4.80;;;1.20;;
77775;SDS011;66965;43.328;6.668;2023-04-01T02:43:35;4.53;;;1.02;;
77775;SDS011;66965;43.328;6.668;2023-04-01T02:46:01;5.13;;;1.67;;
77775;SDS011;66965;43.328;6.668;2023-04-01T02:48:26;8.77;;;1.48;;
77775;SDS011;66965;43.328;6.668;2023-04-01T02:50:52;7.15;;;1.42;;
77775;SDS011;66965;43.328;6.668;2023-04-01T02:53:18;7.85;;;1.60;;
77775;SDS011;66965;43.328;6.668;2023-04-01T02:55:43;7.50;;;1.75;;
77775;SDS011;66965;43.328;6.668;2023-04-01T02:58:09;6.68;;;1.70;;
77775;SDS011;66965;43.328;6.668;2023-04-01T03:00:35;5.50;;;1.27;;
77775;SDS011;66965;43.328;6.668;2023-04-01T03:03:02;8.85;;;1.55;;
77775;SDS011;66965;43.328;6.668;2023-04-01T03:05:28;4.82;;;1.50;;
77775;SDS011;66965;43.328;6.668;2023-04-01T03:07:54;7.25;;;1.17;;
77775;SDS011;66965;43.328;6.668;2023-04-01T03:10:19;7.20;;;1.40;;
77775;SDS011;66965;43.328;6.668;2023-04-01T03:12:45;5.13;;;1.10;;
77775;SDS011;66965;43.328;6.668;2023-04-01T03:15:11;5.82;;;1.33;;
77775;SDS011;66965;43.328;6.668;2023-04-01T03:17:39;5.88;;;1.33;;
77775;SDS011;66965;43.328;6.668;2023-04-01T03:20:06;4.63;;;1.52;;
77775;SDS011;66965;43.328;6.668;2023-04-01T03:22:33;6.00;;;1.23;;
77775;SDS011;66965;43.328;6.668;2023-04-01T03:25:00;8.55;;;1.67;;
77775;SDS011;66965;43.328;6.668;2023-04-01T03:27:25;6.65;;;1.48;;
77775;SDS011;66965;43.328;6.668;2023-04-01T03:29:51;3.85;;;1.02;;
77775;SDS011;66965;43.328;6.668;2023-04-01T03:32:16;9.35;;;1.85;;
77775;SDS011;66965;43.328;6.668;2023-04-01T03:34:42;11.07;;;1.48;;
77775;SDS011;66965;43.328;6.668;2023-04-01T03:37:07;11.85;;;1.60;;
77775;SDS011;66965;43.328;6.668;2023-04-01T03:39:33;7.65;;;1.30;;
77775;SDS011;66965;43.328;6.668;2023-04-01T03:41:58;5.10;;;1.20;;
77775;SDS011;66965;43.328;6.668;2023-04-01T03:44:24;5.15;;;1.27;;
77775;SDS011;66965;43.328;6.668;2023-04-01T03:46:50;10.50;;;2.03;;
77775;SDS011;66965;43.328;6.668;2023-04-01T03:49:15;5.85;;;1.45;;
77775;SDS011;66965;43.328;6.668;2023-04-01T03:51:41;11.13;;;1.98;;
77775;SDS011;66965;43.328;6.668;2023-04-01T03:54:08;6.47;;;1.30;;
77775;SDS011;66965;43.328;6.668;2023-04-01T03:56:34;7.68;;;1.60;;
77775;SDS011;66965;43.328;6.668;2023-04-01T03:59:04;6.82;;;1.63;;
77775;SDS011;66965;43.328;6.668;2023-04-01T04:01:31;5.95;;;1.55;;
77775;SDS011;66965;43.328;6.668;2023-04-01T04:03:57;6.38;;;1.40;;
77775;SDS011;66965;43.328;6.668;2023-04-01T04:06:23;7.55;;;1.88;;
77775;SDS011;66965;43.328;6.668;2023-04-01T04:08:49;6.70;;;1.17;;
77775;SDS011;66965;43.328;6.668;2023-04-01T04:11:15;8.88;;;1.75;;
77775;SDS011;66965;43.328;6.668;2023-04-01T04:13:40;7.95;;;1.40;;
77775;SDS011;66965;43.328;6.668;2023-04-01T04:16:06;6.05;;;1.17;;
77775;SDS011;66965;43.328;6.668;2023-04-01T04:18:33;7.68;;;1.85;;
77775;SDS011;66965;43.328;6.668;2023-04-01T04:20:59;10.77;;;2.35;;
77775;SDS011;66965;43.328;6.668;2023-04-01T04:23:24;9.25;;;1.95;;
77775;SDS011;66965;43.328;6.668;2023-04-01T04:26:03;7.97;;;1.52;;
77775;SDS011;66965;43.328;6.668;2023-04-01T04:28:31;6.55;;;1.33;;
77775;SDS011;66965;43.328;6.668;2023-04-01T04:30:57;7.78;;;1.73;;
77775;SDS011;66965;43.328;6.668;2023-04-01T04:33:23;6.97;;;1.38;;
77775;SDS011;66965;43.328;6.668;2023-04-01T04:35:49;5.65;;;1.48;;
77775;SDS011;66965;43.328;6.668;2023-04-01T04:38:16;7.15;;;1.70;;
77775;SDS011;66965;43.328;6.668;2023-04-01T04:40:41;5.15;;;1.25;;
77775;SDS011;66965;43.328;6.668;2023-04-01T04:43:11;8.57;;;1.58;;
77775;SDS011;66965;43.328;6.668;2023-04-01T04:45:38;7.47;;;1.83;;
77775;SDS011;66965;43.328;6.668;2023-04-01T04:48:04;7.03;;;1.90;;
77775;SDS011;66965;43.328;6.668;2023-04-01T04:50:30;5.75;;;1.83;;
77775;SDS011;66965;43.328;6.668;2023-04-01T04:52:56;8.00;;;1.35;;
77775;SDS011;66965;43.328;6.668;2023-04-01T04:55:21;7.95;;;3.13;;
77775;SDS011;66965;43.328;6.668;2023-04-01T04:57:47;9.40;;;1.60;;
77775;SDS011;66965;43.328;6.668;2023-04-01T05:00:12;8.10;;;1.75;;
77775;SDS011;66965;43.328;6.668;2023-04-01T05:02:38;11.07;;;1.52;;
77775;SDS011;66965;43.328;6.668;2023-04-01T05:05:03;10.80;;;1.98;;
77775;SDS011;66965;43.328;6.668;2023-04-01T05:07:29;7.55;;;1.38;;
77775;SDS011;66965;43.328;6.668;2023-04-01T05:09:55;5.20;;;1.05;;
77775;SDS011;66965;43.328;6.668;2023-04-01T05:12:20;10.88;;;1.50;;
77775;SDS011;66965;43.328;6.668;2023-04-01T05:14:46;8.88;;;1.60;;
77775;SDS011;66965;43.328;6.668;2023-04-01T05:17:12;5.97;;;1.85;;
77775;SDS011;66965;43.328;6.668;2023-04-01T05:19:38;9.52;;;1.40;;
77775;SDS011;66965;43.328;6.668;2023-04-01T05:22:04;10.88;;;2.55;;
77775;SDS011;66965;43.328;6.668;2023-04-01T05:26:56;7.00;;;1.40;;
77775;SDS011;66965;43.328;6.668;2023-04-01T05:29:22;7.70;;;1.40;;
77775;SDS011;66965;43.328;6.668;2023-04-01T05:31:51;9.18;;;1.83;;
77775;SDS011;66965;43.328;6.668;2023-04-01T05:34:17;8.52;;;1.45;;
77775;SDS011;66965;43.328;6.668;2023-04-01T05:36:43;8.02;;;1.67;;
77775;SDS011;66965;43.328;6.668;2023-04-01T05:39:09;7.78;;;1.95;;
77775;SDS011;66965;43.328;6.668;2023-04-01T05:41:35;9.82;;;1.25;;
77775;SDS011;66965;43.328;6.668;2023-04-01T05:46:27;6.78;;;1.63;;
77775;SDS011;66965;43.328;6.668;2023-04-01T05:48:53;9.10;;;2.28;;
77775;SDS011;66965;43.328;6.668;2023-04-01T05:51:18;9.68;;;1.70;;
77775;SDS011;66965;43.328;6.668;2023-04-01T05:53:44;8.32;;;2.00;;
77775;SDS011;66965;43.328;6.668;2023-04-01T05:56:09;9.20;;;1.63;;
77775;SDS011;66965;43.328;6.668;2023-04-01T05:58:35;7.40;;;1.52;;
77775;SDS011;66965;43.328;6.668;2023-04-01T06:01:02;10.15;;;2.58;;
77775;SDS011;66965;43.328;6.668;2023-04-01T06:03:29;7.22;;;1.60;;
77775;SDS011;66965;43.328;6.668;2023-04-01T06:05:55;11.25;;;1.60;;
77775;SDS011;66965;43.328;6.668;2023-04-01T06:08:20;6.13;;;2.00;;
77775;SDS011;66965;43.328;6.668;2023-04-01T06:19:15;10.40;;;2.47;;
77775;SDS011;66965;43.328;6.668;2023-04-01T06:24:50;7.55;;;1.83;;
77775;SDS011;66965;43.328;6.668;2023-04-01T06:27:40;6.47;;;1.30;;
77775;SDS011;66965;43.328;6.668;2023-04-01T06:44:51;5.25;;;1.30;;
77775;SDS011;66965;43.328;6.668;2023-04-01T06:53:21;7.35;;;1.23;;
77775;SDS011;66965;43.328;6.668;2023-04-01T06:56:06;10.07;;;2.92;;
77775;SDS011;66965;43.328;6.668;2023-04-01T06:58:36;8.68;;;1.80;;
77775;SDS011;66965;43.328;6.668;2023-04-01T07:01:06;8.30;;;1.73;;
77775;SDS011;66965;43.328;6.668;2023-04-01T07:03:40;8.70;;;1.73;;
77775;SDS011;66965;43.328;6.668;2023-04-01T07:06:11;8.20;;;1.30;;
77775;SDS011;66965;43.328;6.668;2023-04-01T07:08:45;6.97;;;1.30;;
77775;SDS011;66965;43.328;6.668;2023-04-01T07:11:17;7.93;;;0.98;;
77775;SDS011;66965;43.328;6.668;2023-04-01T07:14:35;7.03;;;1.40;;
77775;SDS011;66965;43.328;6.668;2023-04-01T07:17:08;5.65;;;1.52;;
77775;SDS011;66965;43.328;6.668;2023-04-01T07:22:39;5.68;;;1.02;;
77775;SDS011;66965;43.328;6.668;2023-04-01T07:25:16;7.05;;;1.25;;
77775;SDS011;66965;43.328;6.668;2023-04-01T07:27:45;6.60;;;1.40;;
77775;SDS011;66965;43.328;6.668;2023-04-01T07:30:18;10.27;;;1.88;;
77775;SDS011;66965;43.328;6.668;2023-04-01T07:32:56;9.52;;;1.40;;
77775;SDS011;66965;43.328;6.668;2023-04-01T07:35:35;7.88;;;2.15;;
77775;SDS011;66965;43.328;6.668;2023-04-01T07:46:11;7.43;;;1.57;;
77775;SDS011;66965;43.328;6.668;2023-04-01T07:49:08;4.75;;;1.25;;
77775;SDS011;66965;43.328;6.668;2023-04-01T07:51:43;4.93;;;1.27;;
77775;SDS011;66965;43.328;6.668;2023-04-01T07:56:55;5.88;;;1.13;;
77775;SDS011;66965;43.328;6.668;2023-04-01T08:02:13;5.15;;;1.15;;
77775;SDS011;66965;43.328;6.668;2023-04-01T08:10:46;5.03;;;1.15;;
77775;SDS011;66965;43.328;6.668;2023-04-01T08:18:54;3.72;;;0.70;;
77775;SDS011;66965;43.328;6.668;2023-04-01T08:21:35;4.05;;;1.00;;
77775;SDS011;66965;43.328;6.668;2023-04-01T08:24:52;4.75;;;1.17;;
77775;SDS011;66965;43.328;6.668;2023-04-01T08:26:56;6.55;;;1.40;;
77775;SDS011;66965;43.328;6.668;2023-04-01T08:32:39;4.75;;;0.80;;
77775;SDS011;66965;43.328;6.668;2023-04-01T08:38:17;8.27;;;1.48;;
77775;SDS011;66965;43.328;6.668;2023-04-01T08:43:31;7.57;;;1.10;;
77775;SDS011;66965;43.328;6.668;2023-04-01T09:11:22;5.72;;;0.80;;
77775;SDS011;66965;43.328;6.668;2023-04-01T09:19:27;3.10;;;0.90;;
77775;SDS011;66965;43.328;6.668;2023-04-01T09:21:59;1.48;;;0.60;;
77775;SDS011;66965;43.328;6.668;2023-04-01T09:25:24;3.30;;;0.90;;
77775;SDS011;66965;43.328;6.668;2023-04-01T09:27:43;3.13;;;1.00;;
77775;SDS011;66965;43.328;6.668;2023-04-01T09:30:57;2.83;;;0.70;;
77775;SDS011;66965;43.328;6.668;2023-04-01T09:44:33;5.32;;;1.15;;
77775;SDS011;66965;43.328;6.668;2023-04-01T11:18:40;4.43;;;0.63;;
77775;SDS011;66965;43.328;6.668;2023-04-01T11:21:22;1.88;;;0.45;;
77775;SDS011;66965;43.328;6.668;2023-04-01T12:04:11;2.28;;;0.70;;
77775;SDS011;66965;43.328;6.668;2023-04-01T12:21:50;1.02;;;0.32;;
77775;SDS011;66965;43.328;6.668;2023-04-01T12:43:17;3.28;;;0.68;;
77775;SDS011;66965;43.328;6.668;2023-04-01T12:54:54;3.80;;;0.90;;
77775;SDS011;66965;43.328;6.668;2023-04-01T12:57:51;3.15;;;0.93;;
77775;SDS011;66965;43.328;6.668;2023-04-01T13:00:27;2.22;;;0.60;;
77775;SDS011;66965;43.328;6.668;2023-04-01T13:17:21;4.28;;;0.60;;
77775;SDS011;66965;43.328;6.668;2023-04-01T13:27:29;3.43;;;1.00;;
77775;SDS011;66965;43.328;6.668;2023-04-01T13:33:20;2.80;;;0.70;;
77775;SDS011;66965;43.328;6.668;2023-04-01T13:44:31;4.57;;;1.00;;
77775;SDS011;66965;43.328;6.668;2023-04-01T13:47:12;3.10;;;0.98;;
77775;SDS011;66965;43.328;6.668;2023-04-01T13:49:57;5.18;;;0.85;;
77775;SDS011;66965;43.328;6.668;2023-04-01T13:52:50;3.85;;;0.60;;
77775;SDS011;66965;43.328;6.668;2023-04-01T14:01:13;3.80;;;0.90;;
77775;SDS011;66965;43.328;6.668;2023-04-01T14:06:28;4.90;;;0.77;;
77775;SDS011;66965;43.328;6.668;2023-04-01T14:19:56;4.40;;;0.73;;
77775;SDS011;66965;43.328;6.668;2023-04-01T14:25:43;2.38;;;0.65;;
77775;SDS011;66965;43.328;6.668;2023-04-01T14:50:51;2.60;;;0.60;;
77775;SDS011;66965;43.328;6.668;2023-04-01T14:55:49;3.53;;;0.88;;
77775;SDS011;66965;43.328;6.668;2023-04-01T14:58:17;2.65;;;0.93;;
77775;SDS011;66965;43.328;6.668;2023-04-01T15:09:40;1.70;;;0.43;;
77775;SDS011;66965;43.328;6.668;2023-04-01T15:12:20;1.40;;;0.45;;
77775;SDS011;66965;43.328;6.668;2023-04-01T15:28:41;1.23;;;0.40;;
77775;SDS011;66965;43.328;6.668;2023-04-01T15:30:56;2.05;;;0.50;;
77775;SDS011;66965;43.328;6.668;2023-04-01T15:37:09;1.95;;;0.30;;
77775;SDS011;66965;43.328;6.668;2023-04-01T15:53:41;6.50;;;0.50;;
77775;SDS011;66965;43.328;6.668;2023-04-01T16:03:53;2.72;;;0.57;;
77775;SDS011;66965;43.328;6.668;2023-04-01T16:06:42;2.13;;;0.40;;
77775;SDS011;66965;43.328;6.668;2023-04-01T16:15:12;2.00;;;0.50;;
77775;SDS011;66965;43.328;6.668;2023-04-01T16:23:39;1.73;;;0.40;;
77775;SDS011;66965;43.328;6.668;2023-04-01T16:28:42;3.05;;;0.43;;
77775;SDS011;66965;43.328;6.668;2023-04-01T16:39:16;1.55;;;0.47;;
77775;SDS011;66965;43.328;6.668;2023-04-01T16:41:48;1.80;;;0.70;;
77775;SDS011;66965;43.328;6.668;2023-04-01T16:44:18;2.40;;;0.35;;
77775;SDS011;66965;43.328;6.668;2023-04-01T16:46:49;3.65;;;0.63;;
77775;SDS011;66965;43.328;6.668;2023-04-01T16:49:36;3.83;;;0.63;;
77775;SDS011;66965;43.328;6.668;2023-04-01T16:57:25;5.68;;;1.23;;
77775;SDS011;66965;43.328;6.668;2023-04-01T17:02:31;3.75;;;0.80;;
77775;SDS011;66965;43.328;6.668;2023-04-01T17:05:13;4.93;;;0.90;;
77775;SDS011;66965;43.328;6.668;2023-04-01T17:07:49;4.70;;;0.85;;
77775;SDS011;66965;43.328;6.668;2023-04-01T17:24:27;6.33;;;1.20;;
77775;SDS011;66965;43.328;6.668;2023-04-01T17:35:35;2.50;;;0.80;;
77775;SDS011;66965;43.328;6.668;2023-04-01T17:38:13;9.57;;;1.33;;
77775;SDS011;66965;43.328;6.668;2023-04-01T17:52:05;4.55;;;1.50;;
77775;SDS011;66965;43.328;6.668;2023-04-01T17:54:36;3.83;;;1.05;;
77775;SDS011;66965;43.328;6.668;2023-04-01T18:09:08;3.40;;;1.05;;
77775;SDS011;66965;43.328;6.668;2023-04-01T18:14:48;6.75;;;1.05;;
77775;SDS011;66965;43.328;6.668;2023-04-01T18:26:08;4.80;;;0.80;;
77775;SDS011;66965;43.328;6.668;2023-04-01T18:28:43;5.25;;;1.45;;
77775;SDS011;66965;43.328;6.668;2023-04-01T18:31:19;2.53;;;0.70;;
77775;SDS011;66965;43.328;6.668;2023-04-01T18:41:34;5.70;;;1.15;;
77775;SDS011;66965;43.328;6.668;2023-04-01T18:53:13;3.17;;;1.20;;
77775;SDS011;66965;43.328;6.668;2023-04-01T18:55:40;6.45;;;1.10;;
77775;SDS011;66965;43.328;6.668;2023-04-01T18:58:26;4.88;;;0.93;;
77775;SDS011;66965;43.328;6.668;2023-04-01T19:03:39;5.13;;;1.23;;
77775;SDS011;66965;43.328;6.668;2023-04-01T19:09:08;2.85;;;0.80;;
77775;SDS011;66965;43.328;6.668;2023-04-01T19:11:52;4.80;;;1.02;;
77775;SDS011;66965;43.328;6.668;2023-04-01T19:15:02;4.00;;;1.48;;
77775;SDS011;66965;43.328;6.668;2023-04-01T19:20:20;2.63;;;0.70;;
77775;SDS011;66965;43.328;6.668;2023-04-01T19:23:17;2.95;;;0.95;;
77775;SDS011;66965;43.328;6.668;2023-04-01T19:25:47;3.97;;;0.95;;
77775;SDS011;66965;43.328;6.668;2023-04-01T19:37:20;3.03;;;0.70;;
77775;SDS011;66965;43.328;6.668;2023-04-01T19:39:58;4.13;;;1.15;;
77775;SDS011;66965;43.328;6.668;2023-04-01T19:53:56;2.60;;;0.85;;
77775;SDS011;66965;43.328;6.668;2023-04-01T19:56:52;6.10;;;1.27;;
77775;SDS011;66965;43.328;6.668;2023-04-01T20:09:53;3.08;;;0.73;;
77775;SDS011;66965;43.328;6.668;2023-04-01T20:14:59;3.65;;;0.68;;
77775;SDS011;66965;43.328;6.668;2023-04-01T20:17:32;3.35;;;0.43;;
77775;SDS011;66965;43.328;6.668;2023-04-01T20:27:58;1.40;;;0.50;;
77775;SDS011;66965;43.328;6.668;2023-04-01T20:44:31;1.23;;;0.30;;
77775;SDS011;66965;43.328;6.668;2023-04-01T20:52:56;3.40;;;0.70;;
77775;SDS011;66965;43.328;6.668;2023-04-01T21:03:41;1.02;;;0.40;;
77775;SDS011;66965;43.328;6.668;2023-04-01T21:06:18;0.63;;;0.40;;
77775;SDS011;66965;43.328;6.668;2023-04-01T21:11:25;2.47;;;0.47;;
77775;SDS011;66965;43.328;6.668;2023-04-01T21:22:20;0.30;;;0.20;;
77775;SDS011;66965;43.328;6.668;2023-04-01T21:33:05;2.57;;;0.87;;
77775;SDS011;66965;43.328;6.668;2023-04-01T22:19:43;2.05;;;0.60;;
77775;SDS011;66965;43.328;6.668;2023-04-01T22:23:13;1.42;;;0.52;;
77775;SDS011;66965;43.328;6.668;2023-04-01T22:28:16;1.00;;;0.28;;
77775;SDS011;66965;43.328;6.668;2023-04-01T22:30:52;1.70;;;0.55;;
77775;SDS011;66965;43.328;6.668;2023-04-01T22:36:13;1.20;;;0.40;;
77775;SDS011;66965;43.328;6.668;2023-04-01T22:44:06;1.38;;;0.55;;
77775;SDS011;66965;43.328;6.668;2023-04-01T22:49:23;3.33;;;0.60;;
77775;SDS011;66965;43.328;6.668;2023-04-01T22:52:14;1.95;;;0.80;;
77775;SDS011;66965;43.328;6.668;2023-04-01T22:54:53;3.20;;;0.55;;
77775;SDS011;66965;43.328;6.668;2023-04-01T23:00:00;8.82;;;0.95;;
77775;SDS011;66965;43.328;6.668;2023-04-01T23:02:59;2.28;;;0.50;;
77775;SDS011;66965;43.328;6.668;2023-04-01T23:05:26;1.05;;;0.50;;
77775;SDS011;66965;43.328;6.668;2023-04-01T23:08:02;3.88;;;1.02;;
77775;SDS011;66965;43.328;6.668;2023-04-01T23:10:44;1.63;;;0.47;;
77775;SDS011;66965;43.328;6.668;2023-04-01T23:13:37;1.20;;;0.40;;
77775;SDS011;66965;43.328;6.668;2023-04-01T23:16:08;7.85;;;0.82;;
77775;SDS011;66965;43.328;6.668;2023-04-01T23:21:46;11.63;;;0.95;;
77775;SDS011;66965;43.328;6.668;2023-04-01T23:24:24;2.53;;;0.60;;
77775;SDS011;66965;43.328;6.668;2023-04-01T23:26:53;3.90;;;0.90;;
77775;SDS011;66965;43.328;6.668;2023-04-01T23:29:24;3.72;;;1.15;;
77775;SDS011;66965;43.328;6.668;2023-04-01T23:32:00;1.20;;;0.63;;
77775;SDS011;66965;43.328;6.668;2023-04-01T23:34:30;1.52;;;0.50;;
77775;SDS011;66965;43.328;6.668;2023-04-01T23:37:02;4.30;;;0.65;;
77775;SDS011;66965;43.328;6.668;2023-04-01T23:39:38;1.17;;;0.43;;
77775;SDS011;66965;43.328;6.668;2023-04-01T23:44:31;2.38;;;0.68;;
77775;SDS011;66965;43.328;6.668;2023-04-01T23:46:59;1.00;;;0.40;;
77775;SDS011;66965;43.328;6.668;2023-04-01T23:49:32;4.38;;;1.65;;
77775;SDS011;66965;43.328;6.668;2023-04-01T23:52:03;2.00;;;0.63;;
77775;SDS011;66965;43.328;6.668;2023-04-01T23:54:51;0.57;;;0.20;;
77775;SDS011;66965;43.328;6.668;2023-04-01T23:57:22;13.88;;;1.13;;
